Reeds Spring, Missouri
Current Conditions -  °F | °C
As of 8:35 AM on Sunday 23 Nov 2014 (Local Time) from KFWB Reporting Station
Haze Haze  
Wind Chill: 54°   Ceiling: 500
Heat Index: 54°   Visibility: 4mi
Dew Point: 54°   Wind: 3mph
Humidity: 100%   Direction: 130°SE
Pressure: 29.58"   Gusts: NA
Location:  36.75°N, 93.38°W
Report Text: KFWB 231435Z AUTO 13003KT 4SM BR OVC005 12/12 A2958 RMK AO2
Loading
Personal Weather Stations






























Interactive Weather Map New forecast layout! Learn more

10-Day Weather Forecast

Advertisements
Track Severe Weather on mobile